createdAt,value
2022-12-09T00:00:07.803Z,22.63
2022-12-09T00:02:35.433Z,23.15
2022-12-09T00:05:02.689Z,22.20
2022-12-09T00:07:29.968Z,19.95
2022-12-09T00:09:57.413Z,21.40
2022-12-09T00:12:26.650Z,20.23
2022-12-09T00:14:53.496Z,21.75
2022-12-09T00:17:20.495Z,21.67
2022-12-09T00:19:48.847Z,21.73
2022-12-09T00:22:15.700Z,22.35
2022-12-09T00:24:42.660Z,23.40
2022-12-09T00:27:09.557Z,23.65
2022-12-09T00:29:36.441Z,22.65
2022-12-09T00:32:03.651Z,21.67
2022-12-09T00:34:30.540Z,21.20
2022-12-09T00:36:57.298Z,23.23
2022-12-09T00:39:24.221Z,22.08
2022-12-09T00:41:51.622Z,22.27
2022-12-09T00:44:21.679Z,23.83
2022-12-09T00:46:48.875Z,25.30
2022-12-09T00:49:15.836Z,25.83
2022-12-09T00:51:42.762Z,26.40
2022-12-09T00:54:09.736Z,28.23
2022-12-09T00:56:36.767Z,27.83
2022-12-09T00:59:03.986Z,27.45
2022-12-09T01:01:31.039Z,27.10
2022-12-09T01:03:58.439Z,26.17
2022-12-09T01:06:27.503Z,26.10
2022-12-09T01:08:55.212Z,25.52
2022-12-09T01:11:25.947Z,25.90
2022-12-09T01:13:53.593Z,27.90
2022-12-09T01:16:27.633Z,27.83
2022-12-09T01:19:03.780Z,26.93
2022-12-09T01:21:32.031Z,26.30
2022-12-09T01:23:58.941Z,24.63
2022-12-09T01:26:26.028Z,25.20
2022-12-09T01:28:55.362Z,26.40
2022-12-09T01:31:24.116Z,24.92
2022-12-09T01:33:51.800Z,26.35
2022-12-09T01:36:22.735Z,27.15
2022-12-09T01:38:50.067Z,26.73
2022-12-09T01:41:18.696Z,25.50
2022-12-09T01:43:46.561Z,27.67
2022-12-09T01:46:13.504Z,27.73
2022-12-09T01:48:47.253Z,28.80
2022-12-09T01:51:19.841Z,27.98
2022-12-09T01:53:49.676Z,29.27
2022-12-09T01:56:32.331Z,27.15
2022-12-09T01:59:12.845Z,28.83
2022-12-09T02:01:40.436Z,28.77
2022-12-09T02:04:07.881Z,27.23
2022-12-09T02:06:39.394Z,28.15
2022-12-09T02:09:06.987Z,28.50
2022-12-09T02:12:00.955Z,27.20
2022-12-09T02:14:51.622Z,25.63
2022-12-09T02:17:41.872Z,28.38
2022-12-09T02:20:09.540Z,26.92
2022-12-09T02:22:57.427Z,27.08
2022-12-09T02:25:33.391Z,25.65
2022-12-09T02:28:00.406Z,25.58
2022-12-09T02:30:36.964Z,25.65
2022-12-09T02:33:52.191Z,24.67
2022-12-09T02:36:22.259Z,25.13
2022-12-09T02:38:50.120Z,24.48
2022-12-09T02:41:29.845Z,22.92
2022-12-09T02:44:12.462Z,24.35
2022-12-09T02:46:41.162Z,25.70
2022-12-09T02:49:08.680Z,25.35
2022-12-09T02:51:42.471Z,25.70
2022-12-09T02:54:14.169Z,18.93
2022-12-09T02:56:45.530Z,25.85
2022-12-09T02:59:12.399Z,23.83
2022-12-09T03:01:47.457Z,25.60
2022-12-09T03:04:19.945Z,26.45
2022-12-09T03:06:53.099Z,29.60
2022-12-09T03:09:30.936Z,25.80
2022-12-09T03:12:02.093Z,28.08
2022-12-09T03:14:38.345Z,24.80
2022-12-09T03:17:42.785Z,26.77
2022-12-09T03:20:17.371Z,27.00
2022-12-09T03:22:46.359Z,23.42
2022-12-09T03:25:24.018Z,24.95
2022-12-09T03:27:57.815Z,27.00
2022-12-09T03:30:24.710Z,17.63
2022-12-09T03:32:52.610Z,23.02
2022-12-09T03:35:25.322Z,25.65
2022-12-09T03:37:53.319Z,25.90
2022-12-09T03:40:25.659Z,23.42
2022-12-09T03:43:27.653Z,25.73
2022-12-09T03:45:56.360Z,25.30
2022-12-09T03:48:24.152Z,25.42
2022-12-09T03:51:10.078Z,24.65
2022-12-09T03:53:55.837Z,25.30
2022-12-09T03:56:34.804Z,25.20
2022-12-09T03:59:04.833Z,23.48
2022-12-09T04:01:32.963Z,23.27
2022-12-09T04:04:00.216Z,22.63
2022-12-09T04:06:27.779Z,24.80
2022-12-09T04:09:02.191Z,24.88
2022-12-09T04:11:30.886Z,23.70
2022-12-09T04:13:57.791Z,24.15
2022-12-09T04:16:24.738Z,24.98
2022-12-09T04:18:51.680Z,24.92
2022-12-09T04:21:19.078Z,25.42
2022-12-09T04:23:46.236Z,24.80
2022-12-09T04:26:16.334Z,24.13
2022-12-09T04:28:43.523Z,25.02
2022-12-09T04:31:12.971Z,23.45
2022-12-09T04:33:40.448Z,22.73
2022-12-09T04:36:10.442Z,23.95
2022-12-09T04:38:37.445Z,24.75
2022-12-09T04:41:04.452Z,24.77
2022-12-09T04:43:31.497Z,24.77
2022-12-09T04:46:04.191Z,23.15
2022-12-09T04:48:31.736Z,24.45
2022-12-09T04:50:59.958Z,23.42
2022-12-09T04:53:27.940Z,23.52
2022-12-09T04:56:21.599Z,23.20
2022-12-09T04:58:50.722Z,23.13
2022-12-09T05:01:28.251Z,22.17
2022-12-09T05:03:57.789Z,22.65
2022-12-09T05:06:25.253Z,22.80
2022-12-09T05:08:52.724Z,25.38
2022-12-09T05:11:21.047Z,22.65
2022-12-09T05:13:48.653Z,23.75
2022-12-09T05:16:17.704Z,24.02
2022-12-09T05:18:47.258Z,23.80
2022-12-09T05:21:19.565Z,24.40
2022-12-09T05:23:47.927Z,24.17
2022-12-09T05:26:17.364Z,26.73
2022-12-09T05:28:45.146Z,26.48
2022-12-09T05:31:18.204Z,25.25
2022-12-09T05:33:48.680Z,26.15
2022-12-09T05:36:18.867Z,23.67
2022-12-09T05:38:46.459Z,25.58
2022-12-09T05:41:14.155Z,25.70
2022-12-09T05:43:41.694Z,26.10
2022-12-09T05:46:09.347Z,29.33
2022-12-09T05:48:36.674Z,28.05
2022-12-09T05:51:07.269Z,25.83
2022-12-09T05:53:36.759Z,26.35
2022-12-09T05:56:04.237Z,27.23
2022-12-09T05:58:31.521Z,24.70
2022-12-09T06:01:06.335Z,23.63
2022-12-09T06:06:07.697Z,24.13
2022-12-09T06:08:35.738Z,19.00
2022-12-09T06:11:04.107Z,24.45
2022-12-09T06:13:31.027Z,23.60
2022-12-09T06:16:03.495Z,24.60
2022-12-09T06:18:32.875Z,26.30
2022-12-09T06:21:00.296Z,24.40
2022-12-09T06:23:27.659Z,25.58
2022-12-09T06:25:54.878Z,24.77
2022-12-09T06:28:30.274Z,24.88
2022-12-09T06:31:03.588Z,25.00
2022-12-09T06:33:54.274Z,22.45
2022-12-09T06:36:17.986Z,24.42
2022-12-09T06:38:45.039Z,24.70
2022-12-09T06:41:14.338Z,23.80
2022-12-09T06:43:41.969Z,23.58
2022-12-09T06:46:18.695Z,24.80
2022-12-09T06:48:46.239Z,23.63
2022-12-09T06:51:13.669Z,23.13
2022-12-09T06:53:43.718Z,22.17
2022-12-09T06:56:13.319Z,24.33
2022-12-09T06:58:42.264Z,26.50
2022-12-09T07:01:15.769Z,25.00
2022-12-09T07:03:44.902Z,25.35
2022-12-09T07:06:21.271Z,23.25
2022-12-09T07:08:48.604Z,24.73
2022-12-09T07:11:15.618Z,24.08
2022-12-09T07:13:42.999Z,25.88
2022-12-09T07:16:10.319Z,25.50
2022-12-09T07:18:37.383Z,28.13
2022-12-09T07:21:13.324Z,26.52
2022-12-09T07:23:40.821Z,24.88
2022-12-09T07:26:08.138Z,25.70
2022-12-09T07:28:36.420Z,27.60
2022-12-09T07:31:03.964Z,30.00
2022-12-09T07:33:31.268Z,26.38
2022-12-09T07:35:58.972Z,26.85
2022-12-09T07:38:27.045Z,27.83
2022-12-09T07:40:54.223Z,24.85
2022-12-09T07:43:21.271Z,24.80
2022-12-09T07:45:49.429Z,25.80
2022-12-09T07:48:16.979Z,27.33
2022-12-09T07:50:44.125Z,27.20
2022-12-09T07:53:11.253Z,27.13
2022-12-09T07:55:38.603Z,26.15
2022-12-09T07:58:05.891Z,26.30
2022-12-09T08:00:35.344Z,26.13
2022-12-09T08:03:02.515Z,27.75
2022-12-09T08:05:29.535Z,25.85
2022-12-09T08:07:57.574Z,27.05
2022-12-09T08:10:24.710Z,31.55
2022-12-09T08:12:52.397Z,28.27
2022-12-09T08:15:20.267Z,31.65
2022-12-09T08:17:47.230Z,27.95
2022-12-09T08:20:15.391Z,28.35
2022-12-09T08:22:42.821Z,29.42
2022-12-09T08:25:11.204Z,29.60
2022-12-09T08:27:38.305Z,28.35
2022-12-09T08:30:07.373Z,29.20
2022-12-09T08:32:34.984Z,29.35
2022-12-09T08:35:02.204Z,28.85
2022-12-09T08:37:29.253Z,28.70
2022-12-09T08:39:56.509Z,29.05
2022-12-09T08:42:23.656Z,26.55
2022-12-09T08:44:53.313Z,27.98
2022-12-09T08:47:23.055Z,27.90
2022-12-09T08:49:51.038Z,26.75
2022-12-09T08:52:18.352Z,26.08
2022-12-09T08:54:45.614Z,27.58
2022-12-09T08:57:12.517Z,27.98
2022-12-09T08:59:44.969Z,26.98
2022-12-09T09:02:12.652Z,26.13
2022-12-09T09:04:40.069Z,26.25
2022-12-09T09:07:07.380Z,26.15
2022-12-09T09:09:34.800Z,26.85
2022-12-09T09:12:01.970Z,26.02
2022-12-09T09:14:29.278Z,27.95
2022-12-09T09:16:56.268Z,27.65
2022-12-09T09:19:27.873Z,25.10
2022-12-09T09:21:56.145Z,24.90
2022-12-09T09:24:25.417Z,25.83
2022-12-09T09:26:53.281Z,27.17
2022-12-09T09:29:22.155Z,27.15
2022-12-09T09:31:56.152Z,26.60
2022-12-09T09:34:25.219Z,19.27
2022-12-09T09:36:52.734Z,26.95
2022-12-09T09:39:20.128Z,25.67
2022-12-09T09:41:52.601Z,24.38
2022-12-09T09:44:46.292Z,26.15
2022-12-09T09:47:20.829Z,24.92
2022-12-09T09:49:54.501Z,26.52
2022-12-09T09:52:26.054Z,26.83
2022-12-09T09:54:53.390Z,26.02
2022-12-09T09:57:40.537Z,24.50
2022-12-09T10:00:22.445Z,25.85
2022-12-09T10:03:12.900Z,25.60
2022-12-09T10:05:55.221Z,26.70
2022-12-09T10:08:36.745Z,26.17
2022-12-09T10:11:22.731Z,28.90
2022-12-09T10:14:26.326Z,24.85
2022-12-09T10:17:13.831Z,25.48
2022-12-09T10:19:46.866Z,25.70
2022-12-09T10:22:18.175Z,24.08
2022-12-09T10:24:55.514Z,26.38
2022-12-09T10:27:28.478Z,23.80
2022-12-09T10:30:06.597Z,23.25
2022-12-09T10:32:36.559Z,21.48
2022-12-09T10:35:18.564Z,22.92
2022-12-09T10:37:46.743Z,22.25
2022-12-09T10:40:31.553Z,21.10
2022-12-09T10:43:31.896Z,21.70
2022-12-09T10:48:48.990Z,18.13
2022-12-09T10:51:30.226Z,18.67
2022-12-09T10:54:01.843Z,19.60
2022-12-09T10:56:33.491Z,19.10
2022-12-09T10:59:25.955Z,18.27
2022-12-09T11:01:58.612Z,18.38
2022-12-09T11:04:31.737Z,21.15
2022-12-09T11:07:07.938Z,18.52
2022-12-09T11:09:47.158Z,16.88
2022-12-09T11:12:27.351Z,17.52
2022-12-09T11:14:59.117Z,17.70
2022-12-09T11:17:37.572Z,18.13
2022-12-09T11:20:24.472Z,16.33
2022-12-09T11:23:12.730Z,16.40
2022-12-09T11:25:54.770Z,17.75
2022-12-09T11:28:29.321Z,18.48
2022-12-09T11:33:56.850Z,16.55
2022-12-09T11:36:44.067Z,15.35
2022-12-09T11:39:26.140Z,16.23
2022-12-09T11:42:18.497Z,15.85
2022-12-09T11:45:04.389Z,17.02
2022-12-09T11:48:13.619Z,17.25
2022-12-09T11:50:32.334Z,17.88
2022-12-09T11:53:12.836Z,17.35
2022-12-09T11:55:46.870Z,17.92
2022-12-09T11:58:18.083Z,16.90
2022-12-09T12:01:26.646Z,17.05
2022-12-09T12:04:01.861Z,16.98
2022-12-09T12:07:03.691Z,16.75
2022-12-09T12:09:48.287Z,18.23
2022-12-09T12:12:35.171Z,14.73
2022-12-09T12:15:25.163Z,16.38
2022-12-09T12:18:03.362Z,17.83
2022-12-09T12:20:45.572Z,17.42
2022-12-09T12:23:52.637Z,18.65
2022-12-09T12:26:26.359Z,17.83
2022-12-09T12:28:59.175Z,17.23
2022-12-09T12:34:24.247Z,16.95
2022-12-09T12:37:03.651Z,17.70
2022-12-09T12:39:53.924Z,18.10
2022-12-09T12:43:08.248Z,17.63
2022-12-09T12:46:19.538Z,17.85
2022-12-09T12:49:01.229Z,18.00
2022-12-09T12:51:45.007Z,20.05
2022-12-09T12:54:47.134Z,18.67
2022-12-09T12:57:36.855Z,18.38
2022-12-09T13:00:12.178Z,17.52
2022-12-09T13:02:51.591Z,17.88
2022-12-09T13:05:33.205Z,19.00
2022-12-09T13:08:16.074Z,19.38
2022-12-09T13:10:55.226Z,19.13
2022-12-09T13:13:34.485Z,18.75
2022-12-09T13:16:27.561Z,19.25
2022-12-09T13:19:22.532Z,16.63
2022-12-09T13:21:49.810Z,11.80
2022-12-09T13:24:26.299Z,16.05
2022-12-09T13:27:05.649Z,18.33
2022-12-09T13:29:54.855Z,16.25
2022-12-09T13:32:39.843Z,17.33
2022-12-09T13:35:24.135Z,17.48
2022-12-09T13:37:52.497Z,12.20
2022-12-09T13:40:32.755Z,16.15
2022-12-09T13:43:02.574Z,16.73
2022-12-09T13:45:47.631Z,16.35
2022-12-09T13:48:17.277Z,15.20
2022-12-09T13:50:59.455Z,14.20
2022-12-09T13:53:46.065Z,14.70
2022-12-09T13:56:16.378Z,15.95
2022-12-09T13:59:28.268Z,15.10
2022-12-09T14:02:08.536Z,14.70
2022-12-09T14:04:43.433Z,15.50
2022-12-09T14:07:21.591Z,15.25
2022-12-09T14:09:53.924Z,15.35
2022-12-09T14:12:27.052Z,16.55
2022-12-09T14:14:58.354Z,19.02
2022-12-09T14:17:32.865Z,17.20
2022-12-09T14:20:25.095Z,16.70
2022-12-09T14:23:18.859Z,16.40
2022-12-09T14:25:58.434Z,17.05
2022-12-09T14:28:52.687Z,17.05
2022-12-09T14:31:45.138Z,17.60
2022-12-09T14:34:24.720Z,18.35
2022-12-09T14:37:00.096Z,18.10
2022-12-09T14:39:32.855Z,15.07
2022-12-09T14:42:09.982Z,16.90
2022-12-09T14:45:02.782Z,17.65
2022-12-09T14:47:32.618Z,15.85
2022-12-09T14:50:15.600Z,17.02
2022-12-09T14:52:58.780Z,16.77
2022-12-09T14:55:28.006Z,17.02
2022-12-09T14:57:57.555Z,16.95
2022-12-09T15:00:40.800Z,18.23
2022-12-09T15:03:43.145Z,17.90
2022-12-09T15:06:20.565Z,15.77
2022-12-09T15:08:51.223Z,17.23
2022-12-09T15:11:22.366Z,16.80
2022-12-09T15:13:52.351Z,16.05
2022-12-09T15:16:26.126Z,16.70
2022-12-09T15:18:54.777Z,16.70
2022-12-09T15:21:27.645Z,17.70
2022-12-09T15:23:55.273Z,15.85
2022-12-09T15:26:33.191Z,17.25
2022-12-09T15:29:01.041Z,17.50
2022-12-09T15:31:31.004Z,17.42
2022-12-09T15:34:00.943Z,17.40
2022-12-09T15:36:33.413Z,16.95
2022-12-09T15:39:08.682Z,16.80
2022-12-09T15:42:23.499Z,18.20
2022-12-09T15:45:08.367Z,17.88
2022-12-09T15:47:57.534Z,16.50
2022-12-09T15:50:46.609Z,18.25
2022-12-09T15:53:41.380Z,18.77
2022-12-09T15:56:38.961Z,18.90
2022-12-09T15:59:43.269Z,18.95
2022-12-09T16:02:15.285Z,18.70
2022-12-09T16:04:45.405Z,21.75
2022-12-09T16:07:15.266Z,20.85
2022-12-09T16:09:59.602Z,21.42
2022-12-09T16:12:29.422Z,26.93
2022-12-09T16:14:56.545Z,24.83
2022-12-09T16:17:28.706Z,24.10
2022-12-09T16:19:56.061Z,24.17
2022-12-09T16:22:32.008Z,23.40
2022-12-09T16:25:21.288Z,22.25
2022-12-09T16:27:56.023Z,22.27
2022-12-09T16:30:25.625Z,23.50
2022-12-09T16:32:55.563Z,23.38
2022-12-09T16:35:29.725Z,25.38
2022-12-09T16:37:56.533Z,19.73
2022-12-09T16:40:26.447Z,25.33
2022-12-09T16:42:55.547Z,23.58
2022-12-09T16:45:24.945Z,24.20
2022-12-09T16:47:56.174Z,25.25
2022-12-09T16:50:29.708Z,29.63
2022-12-09T16:52:58.250Z,27.95
2022-12-09T16:55:28.883Z,26.58
2022-12-09T16:57:57.864Z,27.85
2022-12-09T17:00:25.759Z,27.20
2022-12-09T17:03:03.476Z,27.95
2022-12-09T17:05:30.427Z,27.77
2022-12-09T17:07:57.473Z,29.33
2022-12-09T17:10:24.823Z,27.75
2022-12-09T17:12:52.095Z,31.02
2022-12-09T17:15:20.498Z,32.40
2022-12-09T17:17:48.834Z,31.67
2022-12-09T17:20:16.405Z,32.28
2022-12-09T17:22:43.493Z,31.67
2022-12-09T17:25:10.498Z,34.50
2022-12-09T17:27:37.623Z,33.17
2022-12-09T17:30:05.489Z,31.20
2022-12-09T17:32:32.798Z,39.63
2022-12-09T17:35:00.071Z,35.83
2022-12-09T17:37:26.935Z,34.28
2022-12-09T17:40:01.621Z,39.10
2022-12-09T17:42:30.299Z,44.78
2022-12-09T17:44:57.405Z,42.55
2022-12-09T17:47:24.705Z,37.78
2022-12-09T17:49:51.466Z,36.10
2022-12-09T17:52:18.417Z,26.17
2022-12-09T17:54:45.875Z,29.73
2022-12-09T17:57:12.716Z,31.92
2022-12-09T17:59:39.634Z,32.53
2022-12-09T18:02:07.090Z,30.75
2022-12-09T18:04:34.025Z,29.70
2022-12-09T18:07:00.793Z,28.58
2022-12-09T18:09:27.558Z,29.02
2022-12-09T18:11:54.384Z,28.35
2022-12-09T18:14:21.305Z,28.30
2022-12-09T18:16:49.347Z,29.00
2022-12-09T18:19:18.250Z,28.83
2022-12-09T18:21:45.532Z,31.80
2022-12-09T18:24:12.793Z,30.48
2022-12-09T18:26:42.140Z,28.67
2022-12-09T18:29:10.926Z,30.95
2022-12-09T18:31:38.077Z,28.52
2022-12-09T18:34:04.971Z,36.60
2022-12-09T18:36:31.958Z,29.45
2022-12-09T18:38:59.468Z,30.55
2022-12-09T18:41:30.436Z,29.42
2022-12-09T18:43:59.753Z,29.05
2022-12-09T18:46:32.921Z,29.40
2022-12-09T18:49:07.447Z,28.20
2022-12-09T18:51:35.209Z,28.63
2022-12-09T18:54:03.301Z,29.55
2022-12-09T18:56:30.815Z,28.70
2022-12-09T18:59:06.386Z,27.75
2022-12-09T19:01:35.783Z,29.13
2022-12-09T19:04:04.070Z,30.30
2022-12-09T19:06:36.337Z,28.65
2022-12-09T19:09:09.793Z,28.83
2022-12-09T19:11:38.586Z,33.17
2022-12-09T19:14:07.412Z,29.83
2022-12-09T19:16:34.728Z,29.83
2022-12-09T19:19:08.769Z,28.55
2022-12-09T19:21:37.122Z,31.17
2022-12-09T19:24:04.766Z,30.55
2022-12-09T19:26:33.853Z,32.90
2022-12-09T19:29:04.725Z,29.05
2022-12-09T19:31:38.407Z,32.17
2022-12-09T19:34:11.000Z,31.00
2022-12-09T19:36:43.478Z,30.35
2022-12-09T19:39:12.349Z,29.23
2022-12-09T19:41:40.660Z,30.40
2022-12-09T19:44:08.658Z,29.73
2022-12-09T19:46:35.818Z,31.25
2022-12-09T19:49:03.218Z,29.00
2022-12-09T19:51:30.308Z,28.88
2022-12-09T19:54:01.542Z,29.05
2022-12-09T19:56:28.678Z,34.10
2022-12-09T19:58:56.311Z,31.83
2022-12-09T20:01:28.655Z,32.75
2022-12-09T20:04:19.002Z,32.72
2022-12-09T20:06:55.604Z,32.63
2022-12-09T20:09:24.597Z,31.23
2022-12-09T20:11:53.043Z,31.80
2022-12-09T20:14:20.490Z,27.58
2022-12-09T20:16:47.480Z,28.48
2022-12-09T20:19:14.597Z,27.05
2022-12-09T20:21:41.748Z,24.25
2022-12-09T20:24:09.203Z,24.35
2022-12-09T20:26:38.853Z,24.65
2022-12-09T20:29:08.529Z,24.55
2022-12-09T20:31:37.351Z,26.35
2022-12-09T20:34:11.708Z,24.98
2022-12-09T20:36:43.893Z,25.42
2022-12-09T20:39:17.535Z,24.70
2022-12-09T20:41:44.892Z,29.88
2022-12-09T20:44:13.978Z,27.85
2022-12-09T20:46:44.410Z,29.98
2022-12-09T20:49:11.267Z,30.55
2022-12-09T20:51:43.982Z,34.85
2022-12-09T20:54:14.283Z,37.25
2022-12-09T20:56:45.781Z,43.42
2022-12-09T20:59:13.794Z,34.70
2022-12-09T21:01:40.991Z,39.05
2022-12-09T21:04:08.667Z,37.03
2022-12-09T21:06:40.440Z,39.13
2022-12-09T21:09:15.748Z,43.03
2022-12-09T21:11:42.557Z,31.75
2022-12-09T21:14:11.291Z,39.15
2022-12-09T21:16:40.555Z,39.42
2022-12-09T21:19:11.245Z,34.90
2022-12-09T21:21:41.862Z,36.15
2022-12-09T21:24:11.859Z,32.75
2022-12-09T21:26:39.427Z,32.55
2022-12-09T21:29:11.536Z,28.13
2022-12-09T21:31:40.983Z,28.73
2022-12-09T21:34:09.148Z,25.83
2022-12-09T21:36:38.787Z,27.05
2022-12-09T21:39:06.812Z,25.55
2022-12-09T21:41:36.488Z,25.35
2022-12-09T21:44:07.163Z,28.35
2022-12-09T21:46:36.669Z,26.45
2022-12-09T21:49:06.215Z,26.98
2022-12-09T21:51:37.437Z,28.63
2022-12-09T21:54:07.997Z,26.33
2022-12-09T21:56:36.101Z,25.42
2022-12-09T21:59:05.412Z,25.50
2022-12-09T22:01:38.211Z,26.20
2022-12-09T22:04:15.187Z,26.27
2022-12-09T22:06:45.662Z,26.13
2022-12-09T22:09:12.693Z,23.98
2022-12-09T22:11:39.944Z,24.98
2022-12-09T22:14:10.732Z,26.23
2022-12-09T22:16:41.000Z,24.95
2022-12-09T22:19:09.258Z,25.95
2022-12-09T22:21:36.944Z,23.02
2022-12-09T22:24:06.415Z,25.70
2022-12-09T22:26:34.026Z,25.25
2022-12-09T22:29:02.344Z,24.67
2022-12-09T22:31:36.319Z,26.00
2022-12-09T22:34:14.630Z,23.50
2022-12-09T22:36:42.074Z,23.60
2022-12-09T22:39:15.735Z,22.40
2022-12-09T22:41:43.843Z,23.73
2022-12-09T22:44:15.953Z,21.85
2022-12-09T22:46:43.271Z,21.88
2022-12-09T22:49:11.910Z,20.30
2022-12-09T22:51:38.940Z,20.67
2022-12-09T22:54:10.838Z,32.17
2022-12-09T22:56:40.226Z,50.58
2022-12-09T22:59:07.614Z,25.77
2022-12-09T23:01:37.375Z,22.42
2022-12-09T23:04:06.805Z,21.85
2022-12-09T23:06:36.834Z,21.35
2022-12-09T23:09:04.544Z,21.45
2022-12-09T23:11:31.667Z,22.25
2022-12-09T23:14:01.038Z,20.75
2022-12-09T23:16:27.932Z,21.13
2022-12-09T23:18:58.798Z,23.23
2022-12-09T23:21:34.089Z,22.65
2022-12-09T23:24:03.178Z,22.73
2022-12-09T23:26:31.830Z,21.98
2022-12-09T23:29:00.773Z,22.75
2022-12-09T23:31:31.429Z,23.45
2022-12-09T23:33:59.564Z,23.08
2022-12-09T23:36:37.980Z,23.30
2022-12-09T23:39:09.695Z,22.17
2022-12-09T23:41:37.387Z,23.73
2022-12-09T23:44:10.973Z,24.30
2022-12-09T23:46:38.526Z,24.00
2022-12-09T23:49:06.676Z,26.67
2022-12-09T23:51:37.790Z,26.58
2022-12-09T23:54:07.266Z,26.95
2022-12-09T23:56:38.674Z,25.65
2022-12-09T23:59:09.061Z,26.35
